createdAt,value
2023-04-09T00:01:23.144Z,100770.56
2023-04-09T00:03:52.141Z,100771.08
2023-04-09T00:06:21.261Z,100772.59
2023-04-09T00:08:49.735Z,100772.59
2023-04-09T00:11:22.892Z,100770.64
2023-04-09T00:13:52.715Z,100771.85
2023-04-09T00:16:21.102Z,100773.58
2023-04-09T00:18:49.722Z,100776.05
2023-04-09T00:21:18.444Z,100776.96
2023-04-09T00:23:47.559Z,100774.08
2023-04-09T00:26:16.314Z,100773.45
2023-04-09T00:28:44.654Z,100772.85
2023-04-09T00:31:13.559Z,100776.44
2023-04-09T00:33:42.597Z,100776.30
2023-04-09T00:36:13.078Z,100779.58
2023-04-09T00:38:41.613Z,100780.85
2023-04-09T00:41:11.026Z,100779.77
2023-04-09T00:43:39.723Z,100780.27
2023-04-09T00:46:08.241Z,100783.05
2023-04-09T00:48:39.783Z,100787.36
2023-04-09T00:51:08.456Z,100792.87
2023-04-09T00:53:36.869Z,100792.13
2023-04-09T00:56:06.492Z,100791.94
2023-04-09T00:58:41.980Z,100794.10
2023-04-09T01:01:12.011Z,100797.61
2023-04-09T01:03:41.365Z,100798.38
2023-04-09T01:06:21.954Z,100797.50
2023-04-09T01:09:05.836Z,100792.54
2023-04-09T01:11:43.187Z,100792.20
2023-04-09T01:14:30.941Z,100790.89
2023-04-09T01:17:06.256Z,100788.73
2023-04-09T01:19:49.664Z,100792.19
2023-04-09T01:22:46.064Z,100797.00
2023-04-09T01:25:46.438Z,100800.63
2023-04-09T01:28:32.637Z,100802.10
2023-04-09T01:31:05.016Z,100806.61
2023-04-09T01:33:34.440Z,100802.25
2023-04-09T01:36:05.928Z,100800.42
2023-04-09T01:38:43.443Z,100795.52
2023-04-09T01:41:17.476Z,100797.20
2023-04-09T01:43:46.730Z,100797.77
2023-04-09T01:46:17.866Z,100797.44
2023-04-09T01:48:47.343Z,100803.81
2023-04-09T01:51:17.796Z,100801.07
2023-04-09T01:53:46.204Z,100802.51
2023-04-09T01:56:14.708Z,100801.58
2023-04-09T01:58:44.686Z,100804.33
2023-04-09T02:01:21.261Z,100799.75
2023-04-09T02:04:04.343Z,100799.16
2023-04-09T02:06:51.186Z,100799.09
2023-04-09T02:09:21.583Z,100797.70
2023-04-09T02:11:51.294Z,100801.38
2023-04-09T02:14:27.820Z,100806.75
2023-04-09T02:16:56.617Z,100806.79
2023-04-09T02:19:24.904Z,100811.17
2023-04-09T02:21:58.912Z,100810.74
2023-04-09T02:24:27.617Z,100815.80
2023-04-09T02:26:56.007Z,100813.86
2023-04-09T02:29:24.408Z,100816.20
2023-04-09T02:31:53.503Z,100816.15
2023-04-09T02:34:28.609Z,100817.73
2023-04-09T02:36:57.076Z,100821.58
2023-04-09T02:39:25.410Z,100822.80
2023-04-09T02:41:53.880Z,100829.54
2023-04-09T02:44:23.109Z,100828.89
2023-04-09T02:46:54.827Z,100829.44
2023-04-09T02:49:23.954Z,100828.91
2023-04-09T02:51:52.515Z,100832.08
2023-04-09T02:54:21.211Z,100832.27
2023-04-09T02:56:50.260Z,100834.88
2023-04-09T02:59:18.648Z,100837.00
2023-04-09T03:01:48.891Z,100833.86
2023-04-09T03:04:17.675Z,100834.72
2023-04-09T03:06:46.198Z,100839.53
2023-04-09T03:09:15.054Z,100840.64
2023-04-09T03:11:43.592Z,100840.55
2023-04-09T03:14:11.935Z,100841.17
2023-04-09T03:16:42.580Z,100838.77
2023-04-09T03:19:11.432Z,100837.67
2023-04-09T03:21:39.714Z,100834.08
2023-04-09T03:24:08.302Z,100838.16
2023-04-09T03:26:36.673Z,100834.84
2023-04-09T03:29:11.228Z,100837.31
2023-04-09T03:31:41.606Z,100837.98
2023-04-09T03:34:10.005Z,100838.98
2023-04-09T03:36:39.714Z,100839.66
2023-04-09T03:39:32.997Z,100839.86
2023-04-09T03:42:07.716Z,100838.05
2023-04-09T03:44:44.364Z,100840.92
2023-04-09T03:47:16.689Z,100839.10
2023-04-09T03:49:46.585Z,100843.41
2023-04-09T03:52:25.036Z,100843.14
2023-04-09T03:54:59.481Z,100842.58
2023-04-09T03:57:28.383Z,100843.95
2023-04-09T03:59:56.621Z,100842.89
2023-04-09T04:02:27.506Z,100842.38
2023-04-09T04:05:01.998Z,100846.65
2023-04-09T04:07:34.707Z,100850.36
2023-04-09T04:10:10.129Z,100850.33
2023-04-09T04:12:44.231Z,100855.34
2023-04-09T04:15:20.379Z,100856.66
2023-04-09T04:17:53.955Z,100857.07
2023-04-09T04:21:04.214Z,100858.60
2023-04-09T04:23:53.185Z,100860.13
2023-04-09T04:26:28.651Z,100856.75
2023-04-09T04:28:57.936Z,100862.05
2023-04-09T04:31:35.997Z,100868.04
2023-04-09T04:34:06.598Z,100864.77
2023-04-09T04:36:37.015Z,100865.84
2023-04-09T04:39:09.254Z,100867.66
2023-04-09T04:41:51.403Z,100871.77
2023-04-09T04:44:25.064Z,100874.83
2023-04-09T04:46:59.280Z,100881.60
2023-04-09T04:49:28.284Z,100877.70
2023-04-09T04:51:57.810Z,100873.65
2023-04-09T04:54:26.435Z,100873.55
2023-04-09T04:56:57.636Z,100881.64
2023-04-09T04:59:43.053Z,100883.02
2023-04-09T05:02:13.320Z,100885.08
2023-04-09T05:05:08.082Z,100883.21
2023-04-09T05:07:40.627Z,100882.63
2023-04-09T05:10:09.892Z,100882.55
2023-04-09T05:12:43.828Z,100884.95
2023-04-09T05:15:13.347Z,100883.60
2023-04-09T05:17:44.589Z,100885.20
2023-04-09T05:20:14.123Z,100886.76
2023-04-09T05:22:51.280Z,100890.98
2023-04-09T05:25:25.590Z,100893.17
2023-04-09T05:27:56.198Z,100897.24
2023-04-09T05:30:25.576Z,100901.07
2023-04-09T05:32:57.974Z,100903.33
2023-04-09T05:35:28.755Z,100909.83
2023-04-09T05:37:57.671Z,100914.85
2023-04-09T05:40:26.085Z,100916.02
2023-04-09T05:42:55.625Z,100918.39
2023-04-09T05:45:32.992Z,100920.08
2023-04-09T05:48:02.988Z,100921.67
2023-04-09T05:50:36.115Z,100924.44
2023-04-09T05:53:14.936Z,100928.46
2023-04-09T05:55:44.320Z,100930.34
2023-04-09T05:58:13.941Z,100931.16
2023-04-09T06:00:42.583Z,100933.27
2023-04-09T06:03:11.467Z,100941.42
2023-04-09T06:05:39.830Z,100941.70
2023-04-09T06:08:10.940Z,100942.31
2023-04-09T06:10:41.041Z,100946.39
2023-04-09T06:13:10.580Z,100944.74
2023-04-09T06:15:40.736Z,100947.52
2023-04-09T06:18:09.256Z,100949.41
2023-04-09T06:20:37.734Z,100952.00
2023-04-09T06:23:06.417Z,100954.02
2023-04-09T06:25:38.470Z,100957.52
2023-04-09T06:28:07.037Z,100958.73
2023-04-09T06:30:37.580Z,100960.45
2023-04-09T06:33:06.541Z,100959.50
2023-04-09T06:35:35.060Z,100960.10
2023-04-09T06:38:07.114Z,100964.69
2023-04-09T06:40:39.353Z,100965.52
2023-04-09T06:43:11.005Z,100970.75
2023-04-09T06:45:50.064Z,100971.90
2023-04-09T06:48:18.478Z,100974.77
2023-04-09T06:50:48.697Z,100972.88
2023-04-09T06:53:17.882Z,100975.11
2023-04-09T06:55:46.575Z,100978.59
2023-04-09T06:58:17.361Z,100980.16
2023-04-09T07:00:45.887Z,100981.64
2023-04-09T07:03:18.072Z,100982.95
2023-04-09T07:05:46.913Z,100990.70
2023-04-09T07:08:15.601Z,100995.30
2023-04-09T07:10:52.926Z,100994.14
2023-04-09T07:13:22.955Z,100997.02
2023-04-09T07:15:51.227Z,101002.80
2023-04-09T07:18:21.003Z,101003.13
2023-04-09T07:20:50.182Z,101013.08
2023-04-09T07:23:18.531Z,101008.48
2023-04-09T07:25:48.592Z,101007.94
2023-04-09T07:28:18.541Z,101008.95
2023-04-09T07:30:47.328Z,101006.73
2023-04-09T07:33:17.282Z,101009.34
2023-04-09T07:35:47.128Z,101010.44
2023-04-09T07:38:16.422Z,101008.64
2023-04-09T07:40:44.850Z,101007.40
2023-04-09T07:43:13.595Z,101003.84
2023-04-09T07:45:41.871Z,101010.77
2023-04-09T07:48:10.261Z,101008.77
2023-04-09T07:50:38.943Z,101007.17
2023-04-09T07:53:07.235Z,101014.05
2023-04-09T07:55:35.714Z,101013.14
2023-04-09T07:58:06.111Z,101012.61
2023-04-09T08:00:42.117Z,101013.39
2023-04-09T08:03:12.099Z,101015.29
2023-04-09T08:05:40.694Z,101012.27
2023-04-09T08:08:12.957Z,101014.10
2023-04-09T08:10:41.457Z,101014.00
2023-04-09T08:13:11.901Z,101015.98
2023-04-09T08:15:40.386Z,101012.64
2023-04-09T08:18:10.620Z,101014.64
2023-04-09T08:20:45.401Z,101012.84
2023-04-09T08:23:27.081Z,101009.52
2023-04-09T08:25:56.521Z,101011.83
2023-04-09T08:33:11.703Z,101016.80
2023-04-09T08:35:41.595Z,101018.14
2023-04-09T08:38:10.077Z,101018.13
2023-04-09T08:40:38.757Z,101015.90
2023-04-09T08:43:09.182Z,101013.28
2023-04-09T08:45:41.700Z,101012.50
2023-04-09T08:48:13.388Z,101015.73
2023-04-09T08:50:42.337Z,101014.21
2023-04-09T08:53:12.533Z,101012.52
2023-04-09T08:55:45.125Z,101010.23
2023-04-09T08:58:13.952Z,101010.48
2023-04-09T09:00:43.261Z,101007.46
2023-04-09T09:03:16.104Z,101010.98
2023-04-09T09:05:46.694Z,101010.80
2023-04-09T09:08:26.220Z,101009.44
2023-04-09T09:10:54.578Z,101006.09
2023-04-09T09:13:28.452Z,101003.54
2023-04-09T09:16:14.522Z,101004.38
2023-04-09T09:18:44.676Z,101002.73
2023-04-09T09:21:18.253Z,101003.38
2023-04-09T09:23:50.623Z,101007.38
2023-04-09T09:26:23.201Z,101003.29
2023-04-09T09:28:52.685Z,101003.39
2023-04-09T09:31:22.824Z,101007.44
2023-04-09T09:33:55.599Z,101004.85
2023-04-09T09:36:35.833Z,101007.86
2023-04-09T09:39:10.190Z,101007.91
2023-04-09T09:41:47.546Z,101011.05
2023-04-09T09:44:33.539Z,101005.27
2023-04-09T09:47:04.135Z,101003.96
2023-04-09T09:49:33.657Z,101001.57
2023-04-09T09:52:07.062Z,101003.52
2023-04-09T09:54:43.845Z,101002.70
2023-04-09T09:57:15.623Z,101001.20
2023-04-09T09:59:55.826Z,101000.48
2023-04-09T10:02:27.219Z,100999.61
2023-04-09T10:04:55.838Z,100999.05
2023-04-09T10:07:26.871Z,101000.44
2023-04-09T10:09:57.098Z,101002.15
2023-04-09T10:12:26.322Z,101003.03
2023-04-09T10:14:56.511Z,101000.84
2023-04-09T10:17:26.689Z,101001.98
2023-04-09T10:20:08.586Z,101004.11
2023-04-09T10:22:37.959Z,101004.34
2023-04-09T10:25:08.431Z,101003.61
2023-04-09T10:27:38.345Z,101005.51
2023-04-09T10:30:10.670Z,101004.23
2023-04-09T10:32:51.025Z,101007.12
2023-04-09T10:35:39.703Z,101007.30
2023-04-09T10:38:09.873Z,101008.92
2023-04-09T10:40:50.992Z,101008.27
2023-04-09T10:43:21.232Z,101007.02
2023-04-09T10:45:54.570Z,101002.84
2023-04-09T10:48:26.254Z,101005.48
2023-04-09T10:51:06.731Z,101005.23
2023-04-09T10:53:39.319Z,101005.40
2023-04-09T10:56:17.636Z,101003.62
2023-04-09T10:58:52.133Z,101004.31
2023-04-09T11:01:22.962Z,101006.38
2023-04-09T11:04:21.286Z,101008.13
2023-04-09T11:06:54.916Z,101006.86
2023-04-09T11:09:24.633Z,101005.29
2023-04-09T11:11:58.281Z,100999.59
2023-04-09T11:14:28.360Z,100998.60
2023-04-09T11:17:08.023Z,100999.82
2023-04-09T11:19:41.499Z,100992.96
2023-04-09T11:22:11.603Z,100990.91
2023-04-09T11:24:46.762Z,100989.03
2023-04-09T11:27:21.942Z,100986.79
2023-04-09T11:29:58.241Z,100981.71
2023-04-09T11:32:31.671Z,100980.30
2023-04-09T11:35:01.477Z,100976.32
2023-04-09T11:37:47.615Z,100981.14
2023-04-09T11:40:26.606Z,100978.98
2023-04-09T11:42:59.501Z,100975.69
2023-04-09T11:45:30.036Z,100976.86
2023-04-09T11:47:59.258Z,100974.59
2023-04-09T11:50:28.060Z,100970.58
2023-04-09T11:52:57.194Z,100974.27
2023-04-09T11:55:31.380Z,100974.89
2023-04-09T11:58:11.774Z,100975.64
2023-04-09T12:00:45.568Z,100971.59
2023-04-09T12:03:37.781Z,100970.41
2023-04-09T12:06:09.458Z,100967.23
2023-04-09T12:08:42.640Z,100965.34
2023-04-09T12:11:16.388Z,100962.44
2023-04-09T12:14:03.206Z,100959.47
2023-04-09T12:16:34.761Z,100955.51
2023-04-09T12:19:13.817Z,100950.95
2023-04-09T12:22:02.092Z,100950.37
2023-04-09T12:24:33.636Z,100950.23
2023-04-09T12:27:14.123Z,100946.91
2023-04-09T12:29:42.810Z,100946.55
2023-04-09T12:32:17.417Z,100946.75
2023-04-09T12:34:50.222Z,100941.12
2023-04-09T12:37:19.586Z,100940.30
2023-04-09T12:39:49.504Z,100940.44
2023-04-09T12:42:18.905Z,100936.67
2023-04-09T12:44:47.570Z,100934.65
2023-04-09T12:47:16.784Z,100926.34
2023-04-09T12:49:51.310Z,100925.25
2023-04-09T12:52:19.956Z,100924.05
2023-04-09T12:54:49.094Z,100922.57
2023-04-09T12:57:18.534Z,100920.21
2023-04-09T12:59:48.405Z,100913.58
2023-04-09T13:02:19.040Z,100915.45
2023-04-09T13:04:49.287Z,100913.37
2023-04-09T13:07:29.338Z,100911.86
2023-04-09T13:10:01.025Z,100906.15
2023-04-09T13:12:30.418Z,100899.27
2023-04-09T13:14:59.464Z,100895.43
2023-04-09T13:17:28.154Z,100895.08
2023-04-09T13:20:01.752Z,100893.19
2023-04-09T13:22:33.875Z,100891.72
2023-04-09T13:25:04.164Z,100887.52
2023-04-09T13:27:34.853Z,100883.27
2023-04-09T13:30:06.275Z,100885.79
2023-04-09T13:32:43.976Z,100884.55
2023-04-09T13:35:19.366Z,100886.95
2023-04-09T13:37:47.678Z,100885.48
2023-04-09T13:40:18.121Z,100884.76
2023-04-09T13:42:54.080Z,100886.44
2023-04-09T13:45:24.187Z,100887.26
2023-04-09T13:47:55.422Z,100888.73
2023-04-09T13:50:23.733Z,100889.10
2023-04-09T13:52:52.037Z,100886.56
2023-04-09T13:55:20.759Z,100882.75
2023-04-09T13:57:48.997Z,100884.49
2023-04-09T14:00:20.028Z,100886.35
2023-04-09T14:02:52.651Z,100883.82
2023-04-09T14:05:21.330Z,100887.38
2023-04-09T14:07:50.010Z,100886.66
2023-04-09T14:10:20.135Z,100885.63
2023-04-09T14:12:48.948Z,100881.33
2023-04-09T14:15:19.326Z,100884.56
2023-04-09T14:17:47.699Z,100883.18
2023-04-09T14:20:17.033Z,100886.03
2023-04-09T14:22:49.308Z,100886.48
2023-04-09T14:25:17.755Z,100883.38
2023-04-09T14:27:46.417Z,100885.25
2023-04-09T14:30:19.271Z,100885.52
2023-04-09T14:33:07.438Z,100888.63
2023-04-09T14:35:41.528Z,100889.39
2023-04-09T14:38:14.419Z,100888.17
2023-04-09T14:40:52.181Z,100886.49
2023-04-09T14:43:22.447Z,100885.65
2023-04-09T14:45:54.631Z,100882.50
2023-04-09T14:48:23.547Z,100881.27
2023-04-09T14:50:57.570Z,100879.30
2023-04-09T14:53:45.717Z,100881.86
2023-04-09T14:56:21.331Z,100880.80
2023-04-09T14:58:49.767Z,100879.60
2023-04-09T15:01:27.263Z,100885.36
2023-04-09T15:04:15.960Z,100884.25
2023-04-09T15:06:51.667Z,100881.86
2023-04-09T15:09:21.156Z,100881.19
2023-04-09T15:11:49.485Z,100881.32
2023-04-09T15:14:31.457Z,100884.63
2023-04-09T15:17:07.711Z,100882.61
2023-04-09T15:19:38.237Z,100880.56
2023-04-09T15:22:07.912Z,100881.09
2023-04-09T15:24:48.039Z,100877.08
2023-04-09T15:27:16.658Z,100879.65
2023-04-09T15:29:49.601Z,100880.64
2023-04-09T15:32:23.569Z,100878.16
2023-04-09T15:34:57.101Z,100879.49
2023-04-09T15:37:30.332Z,100881.20
2023-04-09T15:39:58.703Z,100882.91
2023-04-09T15:42:27.245Z,100880.92
2023-04-09T15:45:04.181Z,100879.73
2023-04-09T15:47:33.467Z,100878.01
2023-04-09T15:50:10.254Z,100880.91
2023-04-09T15:52:43.592Z,100880.51
2023-04-09T15:55:14.078Z,100882.04
2023-04-09T15:57:52.101Z,100879.08
2023-04-09T16:00:25.300Z,100882.34
2023-04-09T16:03:13.640Z,100881.44
2023-04-09T16:05:42.110Z,100877.98
2023-04-09T16:08:11.997Z,100877.94
2023-04-09T16:10:46.859Z,100876.48
2023-04-09T16:13:16.921Z,100875.44
2023-04-09T16:15:49.563Z,100873.62
2023-04-09T16:18:18.899Z,100876.15
2023-04-09T16:20:57.544Z,100874.57
2023-04-09T16:23:29.715Z,100875.19
2023-04-09T16:26:03.354Z,100877.43
2023-04-09T16:28:32.345Z,100876.18
2023-04-09T16:31:04.962Z,100873.55
2023-04-09T16:33:37.033Z,100875.11
2023-04-09T16:36:06.938Z,100874.30
2023-04-09T16:38:36.950Z,100876.31
2023-04-09T16:41:05.768Z,100876.30
2023-04-09T16:43:36.184Z,100874.65
2023-04-09T16:46:08.575Z,100875.66
2023-04-09T16:48:41.861Z,100873.84
2023-04-09T16:51:13.197Z,100876.29
2023-04-09T16:53:45.841Z,100877.23
2023-04-09T16:56:21.143Z,100879.27
2023-04-09T16:58:51.729Z,100877.66
2023-04-09T17:01:21.257Z,100878.13
2023-04-09T17:03:50.438Z,100879.12
2023-04-09T17:06:21.394Z,100881.88
2023-04-09T17:08:51.108Z,100881.36
2023-04-09T17:11:24.477Z,100884.75
2023-04-09T17:13:53.957Z,100886.74
2023-04-09T17:16:25.216Z,100889.31
2023-04-09T17:18:54.345Z,100889.88
2023-04-09T17:21:27.716Z,100890.41
2023-04-09T17:24:03.020Z,100896.63
2023-04-09T17:26:34.451Z,100897.63
2023-04-09T17:29:04.402Z,100894.99
2023-04-09T17:31:32.755Z,100896.84
2023-04-09T17:34:20.189Z,100901.58
2023-04-09T17:36:56.904Z,100903.52
2023-04-09T17:39:25.359Z,100906.06
2023-04-09T17:41:56.600Z,100908.07
2023-04-09T17:44:33.699Z,100911.44
2023-04-09T17:47:07.613Z,100910.17
2023-04-09T17:49:36.933Z,100910.55
2023-04-09T17:52:08.120Z,100913.70
2023-04-09T17:54:40.054Z,100916.23
2023-04-09T17:57:08.873Z,100917.96
2023-04-09T17:59:49.144Z,100915.99
2023-04-09T18:02:17.950Z,100910.51
2023-04-09T18:04:53.377Z,100913.85
2023-04-09T18:07:22.176Z,100908.52
2023-04-09T18:09:53.197Z,100905.55
2023-04-09T18:12:22.044Z,100904.78
2023-04-09T18:14:59.678Z,100904.72
2023-04-09T18:17:32.511Z,100904.00
2023-04-09T18:20:01.636Z,100904.15
2023-04-09T18:22:31.340Z,100900.98
2023-04-09T18:24:59.772Z,100903.23
2023-04-09T18:27:29.621Z,100903.84
2023-04-09T18:29:59.606Z,100901.95
2023-04-09T18:32:39.948Z,100901.70
2023-04-09T18:35:11.308Z,100901.64
2023-04-09T18:37:42.954Z,100898.94
2023-04-09T18:40:20.161Z,100902.77
2023-04-09T18:42:54.931Z,100897.59
2023-04-09T18:45:25.701Z,100896.83
2023-04-09T18:48:01.713Z,100894.71
2023-04-09T18:50:35.865Z,100899.34
2023-04-09T18:53:10.127Z,100897.82
2023-04-09T18:55:39.873Z,100893.09
2023-04-09T18:58:12.837Z,100897.36
2023-04-09T19:00:41.901Z,100892.94
2023-04-09T19:03:10.403Z,100893.66
2023-04-09T19:05:40.376Z,100892.36
2023-04-09T19:08:09.873Z,100888.48
2023-04-09T19:10:38.662Z,100889.36
2023-04-09T19:13:07.897Z,100889.02
2023-04-09T19:15:38.588Z,100890.92
2023-04-09T19:18:07.000Z,100888.47
2023-04-09T19:20:38.316Z,100888.95
2023-04-09T19:23:06.927Z,100888.38
2023-04-09T19:25:37.285Z,100889.06
2023-04-09T19:28:07.170Z,100886.04
2023-04-09T19:30:35.509Z,100887.73
2023-04-09T19:33:09.777Z,100888.00
2023-04-09T19:35:40.971Z,100889.92
2023-04-09T19:38:16.166Z,100891.01
2023-04-09T19:40:47.257Z,100891.48
2023-04-09T19:43:16.587Z,100891.05
2023-04-09T19:45:45.132Z,100887.21
2023-04-09T19:48:14.061Z,100886.00
2023-04-09T19:50:48.514Z,100887.23
2023-04-09T19:53:18.766Z,100884.69
2023-04-09T19:55:47.279Z,100885.77
2023-04-09T19:58:15.589Z,100891.36
2023-04-09T20:00:44.090Z,100894.40
2023-04-09T20:03:16.542Z,100892.60
2023-04-09T20:05:45.440Z,100894.66
2023-04-09T20:08:15.924Z,100894.98
2023-04-09T20:10:47.497Z,100899.79
2023-04-09T20:13:17.949Z,100893.08
2023-04-09T20:15:47.107Z,100889.36
2023-04-09T20:18:20.574Z,100889.02
2023-04-09T20:20:52.169Z,100893.94
2023-04-09T20:23:21.267Z,100893.94
2023-04-09T20:25:56.391Z,100898.48
2023-04-09T20:28:25.044Z,100893.62
2023-04-09T20:30:53.611Z,100891.42
2023-04-09T20:33:22.000Z,100892.87
2023-04-09T20:35:50.631Z,100896.70
2023-04-09T20:38:20.694Z,100894.61
2023-04-09T20:40:52.754Z,100895.20
2023-04-09T20:43:21.563Z,100886.56
2023-04-09T20:45:59.963Z,100886.16
2023-04-09T20:48:31.843Z,100876.64
2023-04-09T20:51:02.474Z,100875.34
2023-04-09T20:53:32.517Z,100867.95
2023-04-09T20:56:02.229Z,100868.44
2023-04-09T20:58:32.288Z,100867.98
2023-04-09T21:01:09.921Z,100861.30
2023-04-09T21:03:40.434Z,100859.41
2023-04-09T21:06:09.513Z,100855.84
2023-04-09T21:08:42.862Z,100855.98
2023-04-09T21:11:12.310Z,100854.38
2023-04-09T21:13:53.925Z,100855.95
2023-04-09T21:16:26.315Z,100850.67
2023-04-09T21:18:54.890Z,100851.64
2023-04-09T21:21:37.470Z,100849.90
2023-04-09T21:24:08.040Z,100848.45
2023-04-09T21:26:49.215Z,100849.23
2023-04-09T21:29:23.487Z,100848.47
2023-04-09T21:31:52.069Z,100852.30
2023-04-09T21:34:20.433Z,100858.44
2023-04-09T21:36:48.744Z,100860.23
2023-04-09T21:39:17.080Z,100862.00
2023-04-09T21:41:48.426Z,100863.53
2023-04-09T21:44:16.956Z,100867.77
2023-04-09T21:46:45.375Z,100869.68
2023-04-09T21:49:14.002Z,100871.11
2023-04-09T21:51:45.551Z,100868.91
2023-04-09T21:54:14.557Z,100872.05
2023-04-09T21:56:43.108Z,100870.41
2023-04-09T21:59:20.397Z,100870.48
2023-04-09T22:01:50.182Z,100866.73
2023-04-09T22:04:18.803Z,100862.98
2023-04-09T22:06:48.615Z,100858.98
2023-04-09T22:09:17.291Z,100856.78
2023-04-09T22:11:45.577Z,100855.69
2023-04-09T22:14:17.788Z,100854.95
2023-04-09T22:16:46.993Z,100856.94
2023-04-09T22:19:15.487Z,100852.93
2023-04-09T22:21:44.390Z,100850.75
2023-04-09T22:24:14.314Z,100854.11
2023-04-09T22:26:46.764Z,100852.42
2023-04-09T22:29:16.001Z,100851.55
2023-04-09T22:31:44.534Z,100847.48
2023-04-09T22:34:20.958Z,100843.89
2023-04-09T22:36:53.581Z,100844.79
2023-04-09T22:39:22.019Z,100844.89
2023-04-09T22:41:50.268Z,100845.17
2023-04-09T22:44:18.861Z,100834.83
2023-04-09T22:46:49.102Z,100837.63
2023-04-09T22:49:17.743Z,100833.27
2023-04-09T22:51:46.621Z,100827.45
2023-04-09T22:54:15.799Z,100823.63
2023-04-09T22:56:44.933Z,100824.14
2023-04-09T22:59:15.664Z,100827.98
2023-04-09T23:01:44.072Z,100828.78
2023-04-09T23:04:13.184Z,100826.29
2023-04-09T23:06:42.021Z,100825.21
2023-04-09T23:09:11.190Z,100825.44
2023-04-09T23:11:48.298Z,100823.86
2023-04-09T23:14:17.902Z,100825.77
2023-04-09T23:16:46.223Z,100827.92
2023-04-09T23:19:23.117Z,100823.52
2023-04-09T23:21:52.243Z,100820.56
2023-04-09T23:24:20.505Z,100815.92
2023-04-09T23:26:50.133Z,100817.88
2023-04-09T23:29:18.402Z,100818.38
2023-04-09T23:31:48.988Z,100820.71
2023-04-09T23:34:17.600Z,100819.31
2023-04-09T23:36:46.066Z,100822.08
2023-04-09T23:39:16.602Z,100814.95
2023-04-09T23:41:46.433Z,100811.48
2023-04-09T23:44:19.822Z,100806.98
2023-04-09T23:46:48.701Z,100808.85
2023-04-09T23:49:17.272Z,100811.02
2023-04-09T23:51:53.820Z,100807.58
2023-04-09T23:54:22.391Z,100804.18
2023-04-09T23:57:04.623Z,100802.26
2023-04-09T23:59:36.117Z,100800.55
